Time;durP1;ratioP1;P1;durP2;ratioP2;P2;SDS_P1;SDS_P2;PMS_P1;PMS_P2;Temp;Humidity;BMP_temperature;BMP_pressure;BME280_temperature;BME280_humidity;BME280_pressure;Samples;Min_cycle;Max_cycle;Signal;HPM_P1;HPM_P2
2022/08/31 00:05:25;;;;;;;10.50;6.20;;;;;;;14.60;78.85;98988.59;104866;1274;62842;-23
2022/08/31 00:07:52;;;;;;;8.60;4.30;;;;;;;14.39;79.85;98986.63;104932;1274;76563;-23
2022/08/31 00:10:26;;;;;;;7.10;4.60;;;;;;;14.73;79.55;98987.41;105094;1274;76961;-23
2022/08/31 00:12:58;;;;;;;10.40;5.70;;;;;;;15.12;77.65;98988.60;104874;1274;75151;-23
2022/08/31 00:15:26;;;;;;;7.80;5.10;;;;;;;15.00;77.84;98987.30;104953;1274;61806;-23
2022/08/31 00:17:55;;;;;;;13.40;5.70;;;;;;;14.77;78.47;98986.42;105039;1274;62013;-23
2022/08/31 00:20:22;;;;;;;8.60;5.40;;;;;;;14.52;79.10;98985.91;104648;1274;76537;-23
2022/08/31 00:23:02;;;;;;;7.30;4.20;;;;;;;14.29;80.00;98986.55;105081;1274;76011;-23
2022/08/31 00:25:29;;;;;;;8.30;4.80;;;;;;;14.66;79.47;98989.79;104720;1274;74294;-23
2022/08/31 00:27:56;;;;;;;10.40;5.10;;;;;;;15.06;77.99;98990.91;104773;1272;62784;-23
2022/08/31 00:30:24;;;;;;;11.30;5.60;;;;;;;15.04;77.24;98991.79;104742;1271;63533;-23
2022/08/31 00:32:51;;;;;;;9.70;6.00;;;;;;;14.79;77.79;98990.97;104772;1271;76285;-23
2022/08/31 00:35:18;;;;;;;9.20;5.40;;;;;;;14.50;78.65;98991.52;104872;1271;75691;-23
2022/08/31 00:37:45;;;;;;;13.00;6.70;;;;;;;14.22;79.73;98985.23;104829;1269;75402;-23
2022/08/31 00:40:13;;;;;;;11.70;4.10;;;;;;;13.99;80.69;98987.91;104825;1271;64652;-22
2022/08/31 00:42:40;;;;;;;9.80;4.60;;;;;;;14.36;80.53;98982.73;105118;1274;62307;-23
2022/08/31 00:45:08;;;;;;;7.50;5.20;;;;;;;14.83;78.40;98987.08;105077;1271;75221;-23
2022/08/31 00:47:35;;;;;;;9.20;5.20;;;;;;;14.82;77.92;98985.07;104712;1271;76331;-23
2022/08/31 00:50:04;;;;;;;7.60;4.90;;;;;;;14.59;78.36;98982.42;104713;1271;74375;-23
2022/08/31 00:52:34;;;;;;;10.00;5.40;;;;;;;14.28;78.93;98979.59;104696;1274;62113;-23
2022/08/31 00:55:08;;;;;;;8.00;5.60;;;;;;;13.96;80.01;98980.18;104434;1274;62031;-23
2022/08/31 00:57:37;;;;;;;6.60;3.90;;;;;;;13.72;81.42;98982.09;104720;1272;75305;-23
2022/08/31 01:00:07;;;;;;;8.10;4.70;;;;;;;14.10;81.16;98984.38;104764;1271;76695;-24
2022/08/31 01:02:34;;;;;;;6.50;4.50;;;;;;;14.50;79.15;98981.80;104679;1271;75422;-24
2022/08/31 01:05:01;;;;;;;7.00;4.50;;;;;;;14.44;78.71;98981.42;104728;1271;63159;-24
2022/08/31 01:07:29;;;;;;;9.40;5.50;;;;;;;14.22;79.53;98978.75;104713;1271;62811;-24
2022/08/31 01:09:56;;;;;;;7.70;5.50;;;;;;;13.96;80.20;98978.29;104754;1271;75484;-24
2022/08/31 01:12:24;;;;;;;6.90;3.70;;;;;;;13.72;81.38;98979.63;104720;1271;77076;-24
2022/08/31 01:14:52;;;;;;;6.20;4.30;;;;;;;14.03;81.22;98973.94;104645;1271;75661;-24
2022/08/31 01:17:19;;;;;;;9.60;5.70;;;;;;;14.43;79.17;98978.24;104767;1271;61999;-24
2022/08/31 01:20:17;;;;;;;8.80;5.30;;;;;;;14.38;78.79;98978.56;104799;1271;61924;-23
2022/08/31 01:22:50;;;;;;;8.40;5.00;;;;;;;14.08;79.85;98973.46;104711;1272;75367;-23
2022/08/31 01:25:18;;;;;;;8.90;5.60;;;;;;;13.81;80.99;98973.42;104732;1271;75056;-24
2022/08/31 01:27:45;;;;;;;6.90;4.30;;;;;;;13.56;82.23;98977.87;104710;1271;75481;-24
2022/08/31 01:30:19;;;;;;;7.90;4.60;;;;;;;13.88;81.69;98972.02;104677;1272;63096;-25
2022/08/31 01:32:46;;;;;;;8.20;4.50;;;;;;;14.27;79.55;98970.21;104647;1271;61523;-25
2022/08/31 01:35:13;;;;;;;7.60;4.50;;;;;;;14.19;79.34;98972.20;104649;1275;76618;-25
2022/08/31 01:37:40;;;;;;;8.50;5.30;;;;;;;13.96;80.27;98974.79;104758;1270;75008;-24
2022/08/31 01:40:09;;;;;;;8.20;4.80;;;;;;;13.69;81.31;98971.70;104619;1271;75481;-24
2022/08/31 01:42:36;;;;;;;8.80;4.40;;;;;;;13.46;82.48;98974.12;104655;1271;64464;-25
2022/08/31 01:45:04;;;;;;;6.10;4.20;;;;;;;13.78;82.17;98974.55;104902;1271;62813;-24
2022/08/31 01:47:32;;;;;;;10.40;5.00;;;;;;;14.16;80.08;98969.31;104530;1272;76532;-25
2022/08/31 01:50:00;;;;;;;6.90;5.00;;;;;;;14.11;79.90;98967.09;104807;1271;76136;-24
2022/08/31 01:52:28;;;;;;;10.10;5.30;;;;;;;13.90;80.09;98965.57;104752;1271;74098;-24
2022/08/31 01:54:55;;;;;;;11.00;5.30;;;;;;;13.63;81.11;98965.33;104699;1271;61934;-24
2022/08/31 01:57:23;;;;;;;6.60;3.50;;;;;;;13.38;82.38;98964.37;104750;1271;62143;-24
2022/08/31 02:00:19;;;;;;;11.10;5.00;;;;;;;13.78;81.29;98960.27;104718;1271;76555;-24
2022/08/31 02:02:46;;;;;;;7.40;4.20;;;;;;;13.98;79.68;98956.22;104800;1272;76969;-25
2022/08/31 02:05:14;;;;;;;7.20;4.60;;;;;;;13.81;79.46;98957.55;104777;1271;74258;-24
2022/08/31 02:07:43;;;;;;;7.60;5.10;;;;;;;13.49;81.05;98960.88;104696;1271;62887;-24
2022/08/31 02:10:10;;;;;;;8.50;4.60;;;;;;;13.18;82.57;98961.86;104845;1271;63218;-27
2022/08/31 02:12:38;;;;;;;8.10;4.30;;;;;;;12.92;83.89;98966.55;104622;1273;76529;-24
2022/08/31 02:15:07;;;;;;;7.30;4.60;;;;;;;13.22;83.42;98970.70;104742;1271;75742;-24
2022/08/31 02:17:34;;;;;;;8.70;5.20;;;;;;;13.60;81.38;98962.33;104730;1271;74284;-24
2022/08/31 02:20:04;;;;;;;7.10;4.80;;;;;;;13.60;80.80;98965.13;104779;1271;62090;-24
2022/08/31 02:22:32;;;;;;;8.90;5.30;;;;;;;13.36;81.41;98960.69;104677;1271;61812;-24
2022/08/31 02:25:01;;;;;;;7.10;4.80;;;;;;;13.09;82.51;98967.23;104884;1271;76721;-24
2022/08/31 02:27:28;;;;;;;7.30;3.70;;;;;;;12.84;83.48;98970.53;104848;1271;75832;-24
2022/08/31 02:29:55;;;;;;;6.20;4.10;;;;;;;13.13;83.41;98966.99;104987;1271;75243;-24
2022/08/31 02:32:23;;;;;;;6.20;4.30;;;;;;;13.55;81.42;98963.27;104780;1271;63048;-23
2022/08/31 02:34:50;;;;;;;8.80;4.90;;;;;;;13.54;80.94;98961.66;104753;1271;62055;-23
2022/08/31 02:37:18;;;;;;;7.70;4.80;;;;;;;13.34;81.20;98966.70;104765;1271;75415;-23
2022/08/31 02:39:46;;;;;;;9.70;5.40;;;;;;;12.99;82.50;98970.21;104750;1271;76943;-23
2022/08/31 02:42:16;;;;;;;5.20;3.80;;;;;;;12.75;83.72;98970.70;104948;1272;74237;-23
2022/08/31 02:44:45;;;;;;;6.30;3.50;;;;;;;13.04;83.48;98968.68;104781;1272;61965;-23
2022/08/31 02:47:12;;;;;;;7.10;4.10;;;;;;;13.42;81.38;98965.02;104685;1271;61656;-23
2022/08/31 02:50:03;;;;;;;5.20;3.90;;;;;;;13.34;81.03;98961.96;104672;1271;75467;-25
2022/08/31 02:52:31;;;;;;;6.70;4.40;;;;;;;13.12;81.54;98966.07;104650;1272;76892;-25
2022/08/31 02:54:58;;;;;;;7.00;4.50;;;;;;;12.85;82.80;98966.81;104933;1271;74384;-25
2022/08/31 02:57:25;;;;;;;4.70;3.40;;;;;;;12.61;84.25;98967.26;104682;1272;63641;-25
2022/08/31 02:59:52;;;;;;;6.70;3.70;;;;;;;12.91;83.65;98965.55;104730;1272;63303;-25
2022/08/31 03:02:21;;;;;;;8.90;4.20;;;;;;;13.28;81.75;98963.17;104720;1271;75527;-25
2022/08/31 03:05:00;;;;;;;5.70;3.80;;;;;;;13.28;81.04;98960.41;104782;1271;77075;-25
2022/08/31 03:07:27;;;;;;;5.50;4.10;;;;;;;13.07;81.39;98964.59;104789;1271;75401;-24
2022/08/31 03:09:54;;;;;;;5.30;4.40;;;;;;;12.81;82.25;98967.67;104855;1271;62016;-25
2022/08/31 03:12:23;;;;;;;5.90;3.00;;;;;;;12.58;83.55;98965.61;105144;1271;61951;-25
2022/08/31 03:14:50;;;;;;;4.40;3.30;;;;;;;12.90;83.10;98962.84;104875;1274;76608;-25
2022/08/31 03:17:17;;;;;;;5.60;3.80;;;;;;;13.29;81.50;98961.73;105104;1271;76743;-25
2022/08/31 03:19:44;;;;;;;5.30;3.50;;;;;;;13.26;81.13;98964.74;105075;1270;75123;-24
2022/08/31 03:22:13;;;;;;;8.80;4.10;;;;;;;13.07;81.49;98963.28;104928;1271;61757;-25
2022/08/31 03:24:42;;;;;;;6.60;4.30;;;;;;;12.82;82.72;98964.79;105077;1271;63021;-24
2022/08/31 03:27:09;;;;;;;8.30;3.60;;;;;;;12.60;84.07;98966.63;104765;1271;75468;-24
2022/08/31 03:29:36;;;;;;;5.70;3.60;;;;;;;12.95;83.43;98966.76;104780;1271;77144;-23
2022/08/31 03:32:16;;;;;;;8.00;4.00;;;;;;;13.37;81.71;98965.30;104833;1271;74364;-23
2022/08/31 03:34:44;;;;;;;6.30;4.10;;;;;;;13.37;81.37;98960.47;104781;1271;62053;-23
2022/08/31 03:37:13;;;;;;;5.90;4.40;;;;;;;13.22;81.66;98962.89;104665;1271;61941;-23
2022/08/31 03:39:40;;;;;;;5.30;4.00;;;;;;;13.04;82.25;98963.86;104756;1271;76459;-23
2022/08/31 03:42:07;;;;;;;5.30;3.10;;;;;;;12.86;83.42;98960.10;104805;1271;77045;-23
2022/08/31 03:44:34;;;;;;;6.50;3.40;;;;;;;13.18;82.85;98958.73;104713;1271;75204;-23
2022/08/31 03:47:02;;;;;;;7.40;4.60;;;;;;;13.52;81.13;98957.13;104800;1271;61796;-23
2022/08/31 03:49:30;;;;;;;7.60;3.90;;;;;;;13.60;80.65;98958.86;104832;1271;61878;-23
2022/08/31 03:52:08;;;;;;;7.50;4.80;;;;;;;13.47;80.94;98963.55;105089;1271;76513;-22
2022/08/31 03:54:42;;;;;;;8.70;4.50;;;;;;;13.30;81.91;98966.33;104840;1274;76054;-26
2022/08/31 03:57:10;;;;;;;5.20;3.10;;;;;;;13.29;82.26;98968.70;105144;1271;73124;-23
2022/08/31 03:59:38;;;;;;;8.00;3.60;;;;;;;13.83;80.48;98964.48;105154;1271;61976;-23
2022/08/31 04:02:17;;;;;;;8.40;3.70;;;;;;;14.41;77.97;98962.89;105078;1271;61782;-23
2022/08/31 04:05:20;;;;;;;8.70;4.50;;;;;;;14.43;77.60;98967.46;104563;1280;75374;-23
2022/08/31 04:08:06;;;;;;;7.90;4.80;;;;;;;14.20;79.02;98966.30;104965;1271;76964;-23
2022/08/31 04:10:48;;;;;;;6.90;4.20;;;;;;;13.99;80.27;98964.70;105071;1271;75875;-23
2022/08/31 04:13:53;;;;;;;5.60;3.60;;;;;;;13.99;81.15;98962.58;105080;1271;64466;-23
2022/08/31 04:16:43;;;;;;;6.90;4.30;;;;;;;14.71;78.83;98962.79;104904;1271;63322;-23
2022/08/31 04:19:34;;;;;;;6.80;4.30;;;;;;;15.08;76.97;98968.65;104845;1271;76919;-26
2022/08/31 04:22:13;;;;;;;5.60;4.20;;;;;;;15.08;77.29;98974.64;104765;1271;77059;-23
2022/08/31 04:24:51;;;;;;;5.60;4.30;;;;;;;14.92;77.96;98975.69;104707;1271;75399;-23
2022/08/31 04:27:18;;;;;;;6.30;4.10;;;;;;;14.67;78.85;98974.83;104706;1274;63040;-23
2022/08/31 04:29:46;;;;;;;4.80;3.10;;;;;;;14.55;79.42;98975.71;104780;1271;61877;-23
2022/08/31 04:32:13;;;;;;;5.90;3.90;;;;;;;14.95;78.73;98975.42;104706;1271;76002;-23
2022/08/31 04:34:40;;;;;;;5.10;3.80;;;;;;;15.33;77.28;98979.86;104752;1272;76709;-25
2022/08/31 04:37:09;;;;;;;7.50;4.70;;;;;;;15.40;77.05;98980.98;104833;1271;74958;-24
2022/08/31 04:39:37;;;;;;;22.30;6.10;;;;;;;15.42;77.38;98986.59;104825;1271;62095;-24
2022/08/31 04:42:17;;;;;;;7.30;4.50;;;;;;;15.38;77.33;98991.16;104843;1271;62959;-24
2022/08/31 04:44:44;;;;;;;11.80;3.70;;;;;;;15.37;78.35;98992.18;104720;1274;75633;-24
2022/08/31 04:47:11;;;;;;;6.90;3.90;;;;;;;15.70;77.70;98989.31;104836;1271;76669;-25
2022/08/31 04:49:38;;;;;;;7.90;4.20;;;;;;;16.05;76.44;98991.87;104681;1271;75472;-24
2022/08/31 04:52:07;;;;;;;8.80;4.20;;;;;;;16.04;77.05;98993.41;104924;1271;62998;-24
2022/08/31 04:54:34;;;;;;;6.40;4.40;;;;;;;15.90;77.24;98993.58;104817;1271;62783;-24
2022/08/31 04:57:01;;;;;;;14.20;4.10;;;;;;;15.77;77.82;98992.93;104774;1271;75019;-24
2022/08/31 04:59:30;;;;;;;6.10;3.70;;;;;;;15.65;78.17;98992.52;104690;1271;77110;-24
2022/08/31 05:02:14;;;;;;;8.20;4.00;;;;;;;16.09;77.99;98999.31;104743;1271;75555;-24
2022/08/31 05:04:51;;;;;;;6.40;3.70;;;;;;;16.39;76.27;98999.27;104740;1271;61828;-24
2022/08/31 05:07:18;;;;;;;7.80;4.50;;;;;;;16.35;76.81;99001.35;104889;1271;61107;-24
2022/08/31 05:09:46;;;;;;;7.30;4.90;;;;;;;16.05;77.50;99002.04;104827;1271;75516;-25
2022/08/31 05:12:13;;;;;;;9.60;4.70;;;;;;;15.78;78.93;99001.06;104757;1272;76168;-24
2022/08/31 05:14:42;;;;;;;4.20;3.10;;;;;;;15.67;79.69;99000.02;104757;1271;73283;-23
2022/08/31 05:17:17;;;;;;;7.20;3.20;;;;;;;16.12;78.48;99000.01;104774;1271;61854;-24
2022/08/31 05:19:44;;;;;;;6.90;3.50;;;;;;;16.58;76.63;99003.45;104625;1271;62111;-24
2022/08/31 05:22:13;;;;;;;6.00;4.00;;;;;;;16.55;76.17;99005.48;104817;1271;75533;-24
2022/08/31 05:24:42;;;;;;;7.30;4.20;;;;;;;16.44;77.07;99010.38;104832;1272;73220;-24
2022/08/31 05:27:11;;;;;;;7.00;4.20;;;;;;;16.26;77.63;99010.83;104786;1271;75589;-24
2022/08/31 05:29:39;;;;;;;5.90;4.20;;;;;;;16.04;78.60;99010.52;104764;1272;62919;-24
2022/08/31 05:32:35;;;;;;;4.10;2.80;;;;;;;15.99;79.14;99004.04;104731;1273;61973;-23
2022/08/31 05:35:06;;;;;;;6.70;3.60;;;;;;;16.60;77.89;99008.57;104803;1271;75526;-23
2022/08/31 05:37:33;;;;;;;4.90;3.80;;;;;;;17.04;75.96;99007.98;103654;1271;1499411;-23
2022/08/31 05:40:00;;;;;;;4.90;3.50;;;;;;;16.94;75.68;99009.77;104848;1271;75413;-23
2022/08/31 05:42:27;;;;;;;6.50;4.00;;;;;;;16.78;76.19;99014.77;104814;1271;61854;-23
2022/08/31 05:44:55;;;;;;;5.30;4.30;;;;;;;16.49;77.15;99019.65;104726;1271;61689;-24
2022/08/31 05:47:22;;;;;;;16.00;4.50;;;;;;;16.11;78.87;99021.85;104786;1271;76260;-23
2022/08/31 05:49:49;;;;;;;7.80;3.50;;;;;;;16.00;79.70;99024.24;104763;1271;77372;-23
2022/08/31 05:52:18;;;;;;;38.10;4.70;;;;;;;16.60;78.08;99026.70;104748;1274;73977;-23
2022/08/31 05:54:51;;;;;;;8.70;3.30;;;;;;;16.92;76.07;99029.64;104802;1271;61997;-23
2022/08/31 05:57:18;;;;;;;42.70;5.80;;;;;;;16.96;76.06;99032.02;104898;1271;62656;-23
2022/08/31 05:59:51;;;;;;;6.60;4.20;;;;;;;16.91;75.98;99031.54;104870;1271;74494;-23
2022/08/31 06:02:19;;;;;;;6.10;3.60;;;;;;;16.75;76.56;99032.06;104963;1271;76220;-25
2022/08/31 06:04:47;;;;;;;25.00;4.70;;;;;;;16.69;77.85;99029.61;104773;1272;74361;-24
2022/08/31 06:07:18;;;;;;;4.60;3.00;;;;;;;16.76;77.79;99030.25;104782;1271;63609;-23
2022/08/31 06:09:52;;;;;;;;;;;;;;;17.38;75.49;99029.16;104965;1271;62447;-22
2022/08/31 06:12:21;;;;;;;6.10;3.30;;;;;;;17.68;74.03;99030.06;105163;1271;76092;-23
2022/08/31 06:14:48;;;;;;;6.10;4.00;;;;;;;17.43;74.72;99032.90;105011;1274;76747;-22
2022/08/31 06:17:19;;;;;;;5.30;4.20;;;;;;;17.07;76.21;99033.10;105023;1271;75466;-23
2022/08/31 06:19:46;;;;;;;10.50;4.30;;;;;;;16.85;77.39;99038.42;105067;1274;62981;-24
2022/08/31 06:22:13;;;;;;;9.50;4.10;;;;;;;16.72;77.85;99038.02;105072;1271;62748;-23
2022/08/31 06:24:41;;;;;;;4.50;2.50;;;;;;;16.72;78.38;99030.84;104869;1271;75462;-23
2022/08/31 06:27:09;;;;;;;6.30;3.00;;;;;;;17.27;76.46;99025.80;104840;1271;77205;-23
2022/08/31 06:29:36;;;;;;;4.50;3.40;;;;;;;17.88;74.86;99029.29;104759;1274;75488;-23
2022/08/31 06:32:08;;;;;;;10.70;3.90;;;;;;;18.07;73.99;99029.53;104701;1271;63019;-23
2022/08/31 06:34:46;;;;;;;6.80;3.80;;;;;;;17.90;74.29;99030.00;104630;1272;61228;-23
2022/08/31 06:37:33;;;;;;;5.00;3.80;;;;;;;17.50;75.33;99036.82;104784;1271;74827;-23
2022/08/31 06:40:32;;;;;;;3.70;3.00;;;;;;;17.39;76.66;99040.15;104744;1274;77384;-23
2022/08/31 06:43:19;;;;;;;6.40;3.80;;;;;;;17.39;76.64;99042.75;104767;1272;74441;-24
2022/08/31 06:45:57;;;;;;;5.30;3.20;;;;;;;17.97;74.94;99040.05;104730;1271;63069;-23
2022/08/31 06:48:30;;;;;;;5.50;3.20;;;;;;;18.29;73.40;99037.06;104807;1271;63396;-24
2022/08/31 06:50:57;;;;;;;5.80;2.80;;;;;;;18.44;73.73;99033.42;104792;1271;75969;-24
2022/08/31 06:53:25;;;;;;;4.40;3.00;;;;;;;18.43;72.90;99031.06;104973;1271;77049;-24
2022/08/31 06:56:23;;;;;;;3.90;2.70;;;;;;;18.52;72.44;99034.38;104772;1272;73682;-24
2022/08/31 06:59:09;;;;;;;6.10;3.20;;;;;;;18.54;72.03;99026.91;104661;1271;61956;-24
2022/08/31 07:01:54;;;;;;;2.90;1.80;;;;;;;18.48;71.97;99032.96;104723;1271;61716;-24
2022/08/31 07:05:37;;;;;;;7.20;2.60;;;;;;;19.58;69.34;99023.98;101648;1310;601284;-23
2022/08/31 07:08:04;;;;;;;5.80;2.70;;;;;;;19.65;67.58;99024.24;104585;1278;63102;-23
2022/08/31 07:10:33;;;;;;;131.60;9.20;;;;;;;19.56;68.38;99017.19;104660;1277;61996;-23
2022/08/31 07:13:00;;;;;;;5.20;2.60;;;;;;;19.28;69.73;99024.27;104515;1280;73910;-24
2022/08/31 07:15:28;;;;;;;4.00;2.50;;;;;;;19.04;69.90;99027.74;104601;1277;75752;-23
2022/08/31 07:17:55;;;;;;;4.70;2.60;;;;;;;18.76;70.55;99026.54;104577;1278;74334;-23
2022/08/31 07:20:22;;;;;;;4.50;2.80;;;;;;;18.37;71.74;99029.30;103576;1277;1467417;-23
2022/08/31 07:22:50;;;;;;;4.60;3.60;;;;;;;18.06;73.31;99027.77;104563;1277;63068;-23
2022/08/31 07:25:30;;;;;;;4.40;2.50;;;;;;;17.91;74.26;99036.38;104674;1277;73719;-23
2022/08/31 07:28:00;;;;;;;4.70;3.30;;;;;;;18.27;73.20;99032.16;104640;1277;75946;-23
2022/08/31 07:30:27;;;;;;;3.50;2.40;;;;;;;18.59;71.91;99030.66;104497;1277;74459;-23
2022/08/31 07:33:04;;;;;;;6.20;3.00;;;;;;;18.74;71.30;99036.44;104662;1277;61731;-23
2022/08/31 07:35:34;;;;;;;5.50;3.60;;;;;;;18.64;71.58;99037.25;104549;1277;62106;-24
2022/08/31 07:43:58;;;;;;;3.20;2.60;;;;;;;18.27;72.91;99036.20;104394;1277;74083;-23
2022/08/31 07:46:30;;;;;;;3.70;2.30;;;;;;;18.31;73.28;99034.66;104598;1277;63399;-23
2022/08/31 07:48:58;;;;;;;3.10;2.20;;;;;;;19.13;71.44;99033.37;104500;1277;61777;-23
2022/08/31 07:51:49;;;;;;;4.50;2.80;;;;;;;19.70;68.18;99031.61;104600;1277;74897;-23
2022/08/31 07:54:36;;;;;;;4.70;2.80;;;;;;;19.83;68.23;99029.90;104592;1277;77112;-23
2022/08/31 07:57:17;;;;;;;3.70;2.70;;;;;;;19.78;67.49;99030.48;104576;1278;74491;-23
2022/08/31 07:59:45;;;;;;;5.20;3.00;;;;;;;19.67;68.12;99032.70;104710;1277;62943;-23
2022/08/31 08:02:13;;;;;;;3.50;2.90;;;;;;;19.96;67.73;99034.29;104692;1278;62002;-23
2022/08/31 08:04:43;;;;;;;2.30;2.10;;;;;;;20.38;66.19;99027.02;104677;1277;75767;-24
2022/08/31 08:07:38;;;;;;;103.70;6.70;;;;;;;20.39;65.08;99026.34;104511;1277;77092;-24
2022/08/31 08:10:26;;;;;;;4.10;2.00;;;;;;;20.21;65.83;99031.70;104432;1278;75549;-24
2022/08/31 08:13:12;;;;;;;2.50;2.00;;;;;;;19.55;67.32;99029.65;104537;1277;62890;-24
2022/08/31 08:15:49;;;;;;;3.80;1.90;;;;;;;19.42;68.06;99029.40;104538;1277;61695;-23
2022/08/31 08:18:47;;;;;;;3.00;2.10;;;;;;;19.33;68.43;99035.81;104571;1280;74637;-25
2022/08/31 08:21:18;;;;;;;2.10;1.60;;;;;;;19.14;68.35;99037.67;104649;1277;75940;-24
2022/08/31 08:23:46;;;;;;;4.40;2.30;;;;;;;19.13;68.47;99039.48;104715;1277;74428;-25
2022/08/31 08:26:31;;;;;;;3.10;2.20;;;;;;;18.94;69.40;99038.74;104551;1278;63246;-25
2022/08/31 08:29:17;;;;;;;5.80;1.90;;;;;;;18.85;70.13;99040.23;104572;1281;62757;-25
2022/08/31 08:31:51;;;;;;;3.30;1.70;;;;;;;18.87;70.62;99036.00;104410;1277;75869;-24
2022/08/31 08:34:23;;;;;;;4.80;2.20;;;;;;;19.46;69.33;99036.88;104617;1278;76989;-24
2022/08/31 08:37:00;;;;;;;3.30;2.00;;;;;;;19.98;67.55;99033.21;104360;1278;74437;-23
2022/08/31 08:39:28;;;;;;;4.80;2.10;;;;;;;20.43;64.86;99029.84;104543;1278;61971;-23
2022/08/31 08:42:11;;;;;;;3.50;2.00;;;;;;;20.44;64.20;99028.34;104570;1278;62997;-24
2022/08/31 08:44:39;;;;;;;2.50;1.80;;;;;;;20.22;63.38;99022.61;104518;1280;75562;-23
2022/08/31 08:47:14;;;;;;;2.20;1.80;;;;;;;20.25;63.39;99023.78;104619;1277;75733;-23
2022/08/31 08:49:49;;;;;;;2.30;1.70;;;;;;;20.19;64.75;99018.71;104532;1278;75443;-23
2022/08/31 08:52:40;;;;;;;3.80;1.90;;;;;;;19.92;65.06;99019.84;104519;1280;61695;-24
2022/08/31 08:55:15;;;;;;;2.90;1.80;;;;;;;19.31;67.73;99019.30;104576;1278;61997;-23
2022/08/31 08:57:43;;;;;;;3.30;2.10;;;;;;;18.87;69.79;99020.35;104538;1280;75731;-25
2022/08/31 09:00:20;;;;;;;5.40;2.70;;;;;;;18.64;71.15;99018.40;104312;1278;75882;-24
2022/08/31 09:02:57;;;;;;;3.60;2.10;;;;;;;18.36;72.53;99021.14;104408;1278;74611;-25
2022/08/31 09:06:08;;;;;;;2.90;1.80;;;;;;;18.92;71.89;99024.05;104458;1280;62982;-24
2022/08/31 09:08:47;;;;;;;4.40;1.90;;;;;;;19.29;70.51;99023.78;104539;1281;62182;-23
2022/08/31 09:11:18;;;;;;;6.60;2.50;;;;;;;19.23;69.79;99026.79;104254;1278;73775;-24
2022/08/31 09:14:18;;;;;;;4.20;2.10;;;;;;;19.18;69.47;99026.84;104258;1280;77030;-23
2022/08/31 09:17:08;;;;;;;3.30;1.90;;;;;;;19.38;69.14;99034.14;104487;1278;74386;-23
2022/08/31 09:19:58;;;;;;;6.10;2.00;;;;;;;19.83;67.87;99031.93;104343;1277;61735;-23
2022/08/31 09:22:49;;;;;;;3.00;2.10;;;;;;;19.77;66.65;99032.05;104314;1280;61168;-24
2022/08/31 09:25:27;;;;;;;2.60;1.80;;;;;;;19.64;66.41;99027.89;104460;1278;75491;-24
2022/08/31 09:28:37;;;;;;;2.60;1.60;;;;;;;19.95;65.97;99023.20;104467;1281;76815;-24
2022/08/31 09:31:04;;;;;;;3.60;1.80;;;;;;;20.67;64.31;99016.48;104525;1278;75674;-24
2022/08/31 09:33:33;;;;;;;7.40;2.90;;;;;;;20.54;62.59;99016.37;104558;1278;63168;-24
2022/08/31 09:36:15;;;;;;;6.90;3.20;;;;;;;20.37;63.72;99018.50;104498;1278;61988;-23
2022/08/31 09:38:45;;;;;;;2.60;1.70;;;;;;;20.37;62.48;99012.41;104472;1280;76005;-23
2022/08/31 09:41:30;;;;;;;5.40;1.60;;;;;;;20.40;62.35;99011.50;104626;1280;76943;-25
2022/08/31 09:44:21;;;;;;;2.50;1.30;;;;;;;20.21;62.60;99011.58;104505;1280;74318;-25
2022/08/31 09:46:50;;;;;;;4.10;1.60;;;;;;;20.03;62.32;99013.02;104533;1278;61958;-24
2022/08/31 09:49:30;;;;;;;2.00;1.40;;;;;;;19.97;62.65;99014.50;104435;1278;62000;-24
2022/08/31 09:55:13;;;;;;;2.80;1.10;;;;;;;19.46;62.93;99012.66;104502;1281;77431;-24
2022/08/31 09:57:52;;;;;;;2.50;1.30;;;;;;;19.37;62.77;99018.91;104481;1278;75130;-24
2022/08/31 10:00:40;;;;;;;2.30;1.60;;;;;;;19.34;63.74;99019.88;104505;1280;62889;-24
2022/08/31 10:03:23;;;;;;;3.70;1.80;;;;;;;19.15;65.08;99013.44;104492;1280;62919;-23
2022/08/31 10:05:50;;;;;;;1.70;1.40;;;;;;;19.11;65.23;99021.48;104619;1277;74654;-23
2022/08/31 10:08:56;;;;;;;1.60;1.10;;;;;;;19.07;65.22;99018.94;104550;1281;77248;-23
2022/08/31 10:11:29;;;;;;;2.80;1.80;;;;;;;19.06;64.21;99015.34;104431;1278;75382;-23
2022/08/31 10:14:03;;;;;;;2.40;1.30;;;;;;;19.03;64.87;99017.81;104586;1278;62822;-23
2022/08/31 10:16:42;;;;;;;2.70;1.60;;;;;;;19.06;64.86;99012.84;104610;1278;61776;-23
2022/08/31 10:19:15;;;;;;;3.50;1.70;;;;;;;19.13;64.54;99016.63;104498;1278;75599;-24
2022/08/31 10:22:05;;;;;;;2.70;1.20;;;;;;;19.39;64.37;99014.89;104396;1277;76280;-24
2022/08/31 10:24:47;;;;;;;2.70;1.30;;;;;;;20.22;62.34;99020.56;104415;1277;74183;-23
2022/08/31 10:27:25;;;;;;;1.90;1.30;;;;;;;20.71;60.02;99015.33;104308;1280;63056;-23
2022/08/31 10:29:58;;;;;;;2.30;1.30;;;;;;;21.16;58.90;99020.38;104381;1278;61911;-23
2022/08/31 10:33:10;;;;;;;2.60;1.20;;;;;;;20.91;57.35;99020.02;104712;1277;74920;-23
2022/08/31 10:35:53;;;;;;;4.90;1.40;;;;;;;20.33;58.78;99019.21;104550;1277;76963;-23
2022/08/31 10:38:26;;;;;;;2.80;1.70;;;;;;;19.98;60.84;99023.46;104595;1278;75431;-23
2022/08/31 10:40:59;;;;;;;6.60;1.60;;;;;;;19.75;61.87;99021.48;104632;1277;61882;-24
2022/08/31 10:43:30;;;;;;;3.40;1.60;;;;;;;19.59;62.84;99020.56;104450;1278;63101;-23
2022/08/31 10:45:58;;;;;;;13.10;2.30;;;;;;;19.45;63.20;99022.17;104615;1278;75974;-23
2022/08/31 10:48:26;;;;;;;3.60;1.30;;;;;;;19.46;64.46;99023.16;104646;1280;77004;-23
2022/08/31 10:51:22;;;;;;;1.90;1.50;;;;;;;19.63;64.06;99020.45;104580;1277;75733;-23
2022/08/31 10:54:02;;;;;;;3.40;1.40;;;;;;;19.64;62.37;99012.60;104328;1277;62522;-23
2022/08/31 10:56:57;;;;;;;2.80;1.30;;;;;;;19.60;61.72;99011.33;104419;1278;62930;-23
2022/08/31 10:59:32;;;;;;;26.10;2.60;;;;;;;19.71;61.71;99014.89;104392;1277;75734;-23
2022/08/31 11:02:23;;;;;;;8.00;1.60;;;;;;;19.72;61.46;99011.04;104389;1277;77428;-23
2022/08/31 11:05:00;;;;;;;4.20;1.50;;;;;;;19.89;61.41;99008.43;104324;1278;74365;-23
2022/08/31 11:07:31;;;;;;;2.20;1.40;;;;;;;19.99;61.13;99004.16;104367;1277;62968;-23
2022/08/31 11:10:32;;;;;;;7.90;1.70;;;;;;;20.04;60.23;98999.13;104621;1277;61970;-23
2022/08/31 11:13:01;;;;;;;4.50;1.20;;;;;;;20.31;59.22;98992.87;104507;1278;75483;-23
2022/08/31 11:15:51;;;;;;;5.60;0.90;;;;;;;20.80;55.40;98987.77;104583;1277;75905;-23
2022/08/31 11:18:25;;;;;;;4.00;1.50;;;;;;;20.94;54.72;98992.95;104425;1277;74128;-23
2022/08/31 11:20:55;;;;;;;1.50;1.10;;;;;;;20.85;54.75;98993.11;104466;1277;63916;-23
2022/08/31 11:23:46;;;;;;;4.50;1.40;;;;;;;21.20;56.07;98994.98;104343;1277;61635;-23
2022/08/31 11:26:40;;;;;;;2.50;1.30;;;;;;;21.45;53.91;98991.27;104524;1277;74891;-23
2022/08/31 11:29:34;;;;;;;20.20;1.90;;;;;;;21.13;54.46;98987.13;104678;1277;75773;-23
2022/08/31 11:32:11;;;;;;;3.30;1.20;;;;;;;20.47;56.36;98982.64;104861;1274;74594;-23
2022/08/31 11:34:49;;;;;;;3.20;1.10;;;;;;;20.22;56.42;98980.96;104630;1275;62108;-24
2022/08/31 11:37:50;;;;;;;1.80;1.10;;;;;;;20.26;54.36;98976.64;104910;1274;61634;-23
2022/08/31 11:40:40;;;;;;;4.40;1.30;;;;;;;20.56;53.37;98974.36;104809;1274;76644;-21
2022/08/31 11:43:31;;;;;;;1.40;1.10;;;;;;;20.52;53.47;98971.20;104705;1274;77025;-23
2022/08/31 11:46:25;;;;;;;3.90;0.90;;;;;;;20.42;54.05;98970.06;104593;1274;74387;-23
2022/08/31 11:48:53;;;;;;;0.90;0.60;;;;;;;20.15;52.17;98961.50;104556;1274;63317;-23
2022/08/31 11:51:41;;;;;;;1.00;0.90;;;;;;;20.15;52.49;98962.36;104689;1275;61985;-23
2022/08/31 11:54:40;;;;;;;2.80;1.20;;;;;;;20.20;51.58;98959.95;104761;1271;76652;-23
2022/08/31 11:57:14;;;;;;;2.50;1.00;;;;;;;20.32;51.94;98960.30;104707;1273;77114;-23
2022/08/31 11:59:43;;;;;;;1.70;0.80;;;;;;;20.38;52.64;98957.36;104701;1275;74654;-23
2022/08/31 12:02:19;;;;;;;1.90;0.90;;;;;;;20.60;53.81;98963.23;104890;1274;61193;-24
2022/08/31 12:04:59;;;;;;;1.90;0.80;;;;;;;20.77;53.17;98957.05;104641;1272;61757;-23
2022/08/31 12:07:29;;;;;;;2.70;1.10;;;;;;;20.80;52.67;98953.17;104827;1274;76321;-23
2022/08/31 12:10:17;;;;;;;1.70;0.80;;;;;;;21.13;52.17;98950.06;104864;1274;75716;-23
2022/08/31 12:13:06;;;;;;;2.50;1.10;;;;;;;21.62;51.55;98944.42;104652;1274;75570;-24